Terminal Aerodrome Forecast
Issued by NWS

Home | Current Version | Previous Version | Text Only | Print | Product List | Glossary On
Versions: 1 2 3 4 5 6 7 8 9 10 11 12 13 14 15 16 17 18 19 20 21 22
000
FTUS42 KJAX 250520
TAFVQQ
TAF
KVQQ 250520Z 2506/2606 09004KT P6SM SCT025
      TEMPO 2507/2511 BKN025
     FM251300 12010KT P6SM VCSH BKN030
     FM251600 12012G18KT P6SM BKN035
     FM252300 13008KT P6SM SCT035=

USA.gov is the U.S. government's official web portal to all federal, state and local government web resources and services.